Wetterstation Vordersexau
Wetterdaten: Woche 11.06.12 - 17.06.12 (KW24)
Datum Zeit Temp. A. Feuchte A. Luftdruck Regen Wind Richtung Taupunkt Windchill Windben
11.06.2012 00:00 13,3 C 82 % 1004,9 hPa 0,0 l/m 0,0 km/h NO 10,3 C 13,3 C 0,0 km/h
11.06.2012 01:00 13,2 C 83 % 1004,4 hPa 0,4 l/m 0,0 km/h NO 10,4 C 13,2 C 0,0 km/h
11.06.2012 02:00 12,9 C 84 % 1003,8 hPa 0,4 l/m 0,0 km/h N-NO 10,3 C 12,9 C 0,0 km/h
11.06.2012 03:00 13,0 C 83 % 1004,1 hPa 0,4 l/m 0,0 km/h N 10,2 C 13,0 C 0,0 km/h
11.06.2012 04:00 13,1 C 83 % 1003,9 hPa 2,5 l/m 0,0 km/h O-NO 10,3 C 13,1 C 0,0 km/h
11.06.2012 05:00 12,9 C 83 % 1003,7 hPa 3,6 l/m 0,0 km/h W-NW 10,1 C 12,9 C 0,0 km/h
11.06.2012 06:00 13,1 C 81 % 1004,0 hPa 0,7 l/m 0,0 km/h W-SW 9,9 C 13,1 C 0,0 km/h
11.06.2012 07:00 13,3 C 78 % 1004,0 hPa 1,1 l/m 20,1 km/h SW 9,5 C 7,5 C 11,2 km/h
11.06.2012 08:00 14,3 C 84 % 1004,4 hPa 0,0 l/m 8,4 km/h S-SW 11,6 C 13,1 C 4,7 km/h
11.06.2012 09:00 18,6 C 78 % 1004,2 hPa 0,0 l/m 9,7 km/h SO 14,7 C 17,2 C 5,4 km/h
11.06.2012 10:00 14,3 C 83 % 1004,2 hPa 0,4 l/m 11,7 km/h W 11,5 C 11,6 C 6,5 km/h
11.06.2012 11:00 20,5 C 70 % 1003,4 hPa 0,0 l/m 22,0 km/h S 14,8 C 16,5 C 12,2 km/h
11.06.2012 12:00 20,6 C 64 % 1002,8 hPa 0,0 l/m 13,0 km/h W-SW 13,5 C 18,5 C 7,2 km/h
11.06.2012 13:00 21,0 C 64 % 1002,9 hPa 0,0 l/m 31,8 km/h W-SW 13,9 C 15,9 C 17,6 km/h
11.06.2012 14:00 21,4 C 63 % 1002,6 hPa 0,0 l/m 25,3 km/h W-SW 14,1 C 17,2 C 14,0 km/h
11.06.2012 15:00 21,9 C 58 % 1002,2 hPa 0,0 l/m 29,8 km/h SW 13,3 C 17,4 C 16,6 km/h
11.06.2012 16:00 24,3 C 50 % 1001,9 hPa 0,0 l/m 35,6 km/h W-SW 13,2 C 20,4 C 19,8 km/h
11.06.2012 17:00 24,3 C 49 % 1001,9 hPa 0,0 l/m 24,0 km/h W-SW 12,9 C 21,3 C 13,3 km/h
11.06.2012 18:00 20,3 C 54 % 1002,0 hPa 0,0 l/m 7,1 km/h W 10,7 C 20,0 C 4,0 km/h
11.06.2012 19:00 18,6 C 59 % 1002,1 hPa 0,0 l/m 3,9 km/h W 10,4 C 18,6 C 2,2 km/h
11.06.2012 20:00 17,9 C 64 % 1002,2 hPa 0,0 l/m 0,0 km/h W-SW 11,0 C 17,9 C 0,0 km/h
11.06.2012 21:00 16,1 C 69 % 1001,9 hPa 0,0 l/m 0,0 km/h O-NO 10,4 C 16,1 C 0,0 km/h
11.06.2012 22:00 13,3 C 78 % 1001,9 hPa 0,0 l/m 0,0 km/h SO 9,5 C 13,3 C 0,0 km/h
11.06.2012 23:00 11,6 C 82 % 1002,0 hPa 0,0 l/m 0,0 km/h NO 8,6 C 11,6 C 0,0 km/h
12.06.2012 00:00 12,8 C 82 % 1002,0 hPa 0,0 l/m 0,0 km/h NO 9,8 C 12,8 C 0,0 km/h
12.06.2012 01:00 12,6 C 83 % 1001,5 hPa 0,0 l/m 0,0 km/h O 9,8 C 12,6 C 0,0 km/h
12.06.2012 02:00 12,5 C 82 % 1001,1 hPa 0,0 l/m 0,0 km/h SO 9,5 C 12,5 C 0,0 km/h
12.06.2012 03:00 12,4 C 83 % 1000,6 hPa 0,0 l/m 0,0 km/h W-SW 9,6 C 12,4 C 0,0 km/h
12.06.2012 04:00 12,6 C 83 % 1001,1 hPa 0,0 l/m 3,2 km/h W 9,8 C 12,6 C 1,8 km/h
12.06.2012 05:00 12,4 C 83 % 1001,4 hPa 1,4 l/m 0,0 km/h W-NW 9,6 C 12,4 C 0,0 km/h
12.06.2012 06:00 11,9 C 83 % 1001,6 hPa 3,2 l/m 0,0 km/h W-NW 9,1 C 11,9 C 0,0 km/h
12.06.2012 07:00 12,2 C 82 % 1001,7 hPa 1,1 l/m 0,0 km/h W 9,2 C 12,2 C 0,0 km/h
12.06.2012 08:00 12,6 C 82 % 1002,0 hPa 0,7 l/m 0,0 km/h W-NW 9,6 C 12,6 C 0,0 km/h
12.06.2012 09:00 13,3 C 80 % 1002,0 hPa 1,1 l/m 10,4 km/h W-SW 9,9 C 11,0 C 5,8 km/h
12.06.2012 10:00 13,8 C 82 % 1002,3 hPa 0,4 l/m 2,6 km/h W 10,8 C 13,8 C 1,4 km/h
12.06.2012 11:00 14,3 C 84 % 1002,7 hPa 0,4 l/m 11,0 km/h W-SW 11,6 C 11,9 C 6,1 km/h
12.06.2012 12:00 15,4 C 84 % 1003,0 hPa 0,4 l/m 9,7 km/h SW 12,7 C 13,7 C 5,4 km/h
12.06.2012 13:00 14,9 C 83 % 1003,2 hPa 0,0 l/m 18,1 km/h W-SW 12,0 C 10,1 C 10,1 km/h
12.06.2012 14:00 15,3 C 84 % 1003,3 hPa 0,7 l/m 14,3 km/h W-SW 12,6 C 11,8 C 7,9 km/h
12.06.2012 15:00 15,2 C 84 % 1003,7 hPa 0,4 l/m 7,8 km/h SW 12,5 C 14,4 C 4,3 km/h
12.06.2012 16:00 16,2 C 83 % 1004,2 hPa 0,0 l/m 9,7 km/h SW 13,3 C 14,6 C 5,4 km/h
12.06.2012 17:00 16,7 C 80 % 1004,8 hPa 0,0 l/m 3,2 km/h SW 13,2 C 16,7 C 1,8 km/h
12.06.2012 18:00 13,8 C 84 % 1005,4 hPa 0,7 l/m 7,8 km/h S-SO 11,1 C 13,0 C 4,3 km/h
12.06.2012 19:00 13,8 C 84 % 1006,1 hPa 0,4 l/m 0,0 km/h W-SW 11,1 C 13,8 C 0,0 km/h
12.06.2012 20:00 13,4 C 84 % 1006,6 hPa 0,0 l/m 1,3 km/h SW 10,8 C 13,4 C 0,7 km/h
12.06.2012 21:00 12,9 C 83 % 1007,4 hPa 0,0 l/m 0,0 km/h W-SW 10,1 C 12,9 C 0,0 km/h
12.06.2012 22:00 12,6 C 81 % 1008,3 hPa 0,0 l/m 16,2 km/h S-SW 9,4 C 7,9 C 9,0 km/h
12.06.2012 23:00 12,5 C 82 % 1008,8 hPa 0,0 l/m 3,2 km/h S-SW 9,5 C 12,5 C 1,8 km/h
13.06.2012 00:00 12,3 C 83 % 1009,1 hPa 0,0 l/m 0,0 km/h S-SW 9,5 C 12,3 C 0,0 km/h
13.06.2012 01:00 12,5 C 84 % 1009,3 hPa 0,0 l/m 5,8 km/h W 9,9 C 12,5 C 3,2 km/h
13.06.2012 02:00 12,4 C 84 % 1009,3 hPa 0,0 l/m 0,0 km/h N-NO 9,8 C 12,4 C 0,0 km/h
13.06.2012 03:00 12,1 C 84 % 1009,8 hPa 0,0 l/m 7,8 km/h N-NO 9,5 C 11,2 C 4,3 km/h
13.06.2012 04:00 11,9 C 84 % 1009,9 hPa 0,0 l/m 0,0 km/h SW 9,3 C 11,9 C 0,0 km/h
13.06.2012 05:00 11,5 C 85 % 1010,1 hPa 0,0 l/m 8,4 km/h S-SW 9,1 C 10,2 C 4,7 km/h
13.06.2012 06:00 11,9 C 85 % 1010,4 hPa 0,0 l/m 0,0 km/h SW 9,5 C 11,9 C 0,0 km/h
13.06.2012 07:00 13,4 C 84 % 1010,7 hPa 0,0 l/m 14,9 km/h SW 10,8 C 9,3 C 8,3 km/h
13.06.2012 08:00 14,6 C 81 % 1011,1 hPa 0,0 l/m 16,2 km/h W-SW 11,4 C 10,3 C 9,0 km/h
13.06.2012 09:00 14,9 C 78 % 1011,7 hPa 0,0 l/m 24,0 km/h S 11,1 C 8,7 C 13,3 km/h
13.06.2012 10:00 15,9 C 76 % 1011,6 hPa 0,0 l/m 13,0 km/h SW 11,7 C 12,9 C 7,2 km/h
13.06.2012 11:00 19,3 C 68 % 1011,9 hPa 0,0 l/m 40,2 km/h S 13,2 C 12,7 C 22,3 km/h
13.06.2012 12:00 19,8 C 62 % 1012,2 hPa 0,0 l/m 20,1 km/h W 12,3 C 15,9 C 11,2 km/h
13.06.2012 13:00 20,0 C 63 % 1012,3 hPa 0,0 l/m 15,6 km/h S 12,7 C 17,1 C 8,6 km/h
13.06.2012 14:00 21,1 C 60 % 1012,1 hPa 0,0 l/m 29,2 km/h W 13,0 C 16,4 C 16,2 km/h
13.06.2012 15:00 14,9 C 78 % 1012,7 hPa 0,4 l/m 24,6 km/h N-NO 11,1 C 8,6 C 13,7 km/h
13.06.2012 16:00 12,6 C 82 % 1013,5 hPa 2,5 l/m 9,7 km/h SO 9,6 C 10,6 C 5,4 km/h
13.06.2012 17:00 11,5 C 83 % 1014,4 hPa 6,4 l/m 12,3 km/h SO 8,7 C 8,1 C 6,8 km/h
13.06.2012 18:00 13,6 C 84 % 1014,7 hPa 0,0 l/m 0,0 km/h S-SO 10,9 C 13,6 C 0,0 km/h
13.06.2012 19:00 14,6 C 81 % 1014,9 hPa 0,0 l/m 0,0 km/h W-NW 11,4 C 14,6 C 0,0 km/h
13.06.2012 20:00 14,5 C 82 % 1015,5 hPa 0,0 l/m 0,0 km/h O-NO 11,5 C 14,5 C 0,0 km/h
13.06.2012 21:00 13,2 C 84 % 1016,0 hPa 0,0 l/m 0,0 km/h O-NO 10,6 C 13,2 C 0,0 km/h
13.06.2012 22:00 12,6 C 84 % 1016,2 hPa 0,0 l/m 0,0 km/h O-SO 10,0 C 12,6 C 0,0 km/h
13.06.2012 23:00 12,5 C 83 % 1016,7 hPa 0,4 l/m 0,0 km/h O-SO 9,7 C 12,5 C 0,0 km/h
14.06.2012 00:00 12,4 C 83 % 1017,1 hPa 0,0 l/m 0,0 km/h O-SO 9,6 C 12,4 C 0,0 km/h
14.06.2012 01:00 11,3 C 83 % 1017,3 hPa 0,0 l/m 0,0 km/h SO 8,5 C 11,3 C 0,0 km/h
14.06.2012 02:00 9,7 C 83 % 1017,0 hPa 0,0 l/m 0,0 km/h SO 7,0 C 9,7 C 0,0 km/h
14.06.2012 03:00 9,3 C 82 % 1016,7 hPa 0,0 l/m 0,0 km/h SO 6,4 C 9,3 C 0,0 km/h
14.06.2012 04:00 9,0 C 81 % 1016,4 hPa 0,0 l/m 0,0 km/h O-NO 5,9 C 9,0 C 0,0 km/h
14.06.2012 05:00 8,2 C 81 % 1016,6 hPa 0,0 l/m 0,0 km/h SO 5,1 C 8,2 C 0,0 km/h
14.06.2012 06:00 8,9 C 78 % 1016,9 hPa 0,0 l/m 0,0 km/h O-SO 5,3 C 8,9 C 0,0 km/h
14.06.2012 07:00 11,6 C 70 % 1017,0 hPa 0,0 l/m 0,0 km/h SO 6,3 C 11,6 C 0,0 km/h
14.06.2012 12:00 23,8 C 46 % 1017,0 hPa 0,0 l/m 0,0 km/h SW 11,5 C 23,8 C 0,0 km/h
14.06.2012 13:00 24,6 C 46 % 1016,2 hPa 0,0 l/m 0,0 km/h N-NW 12,2 C 24,6 C 0,0 km/h
14.06.2012 14:00 25,2 C 41 % 1015,8 hPa 0,0 l/m 0,0 km/h N-NO 11,0 C 25,2 C 0,0 km/h
14.06.2012 15:00 25,8 C 40 % 1015,5 hPa 0,0 l/m 0,0 km/h W 11,2 C 25,8 C 0,0 km/h
14.06.2012 16:00 30,3 C 33 % 1014,9 hPa 0,0 l/m 0,0 km/h NW 12,2 C 30,3 C 0,0 km/h
14.06.2012 17:00 30,6 C 29 % 1014,6 hPa 0,0 l/m 0,0 km/h S 10,5 C 30,6 C 0,0 km/h
14.06.2012 18:00 30,8 C 28 % 1014,3 hPa 0,0 l/m 0,0 km/h N-NW 10,2 C 30,8 C 0,0 km/h
14.06.2012 19:00 26,4 C 32 % 1014,0 hPa 0,0 l/m 1,9 km/h NO 8,4 C 26,4 C 1,1 km/h
14.06.2012 20:00 19,7 C 51 % 1014,2 hPa 0,0 l/m 0,0 km/h O-SO 9,3 C 19,7 C 0,0 km/h
14.06.2012 21:00 16,1 C 64 % 1014,5 hPa 0,0 l/m 0,0 km/h O 9,3 C 16,1 C 0,0 km/h
14.06.2012 22:00 13,9 C 71 % 1014,8 hPa 0,0 l/m 0,0 km/h S-SO 8,7 C 13,9 C 0,0 km/h
14.06.2012 23:00 13,3 C 75 % 1014,8 hPa 0,0 l/m 0,0 km/h SO 9,0 C 13,3 C 0,0 km/h
15.06.2012 00:00 12,6 C 77 % 1014,9 hPa 0,0 l/m 0,0 km/h O-NO 8,7 C 12,6 C 0,0 km/h
15.06.2012 01:00 11,6 C 80 % 1015,3 hPa 0,0 l/m 0,0 km/h NO 8,3 C 11,6 C 0,0 km/h
15.06.2012 02:00 10,8 C 83 % 1014,8 hPa 0,0 l/m 0,0 km/h O-SO 8,0 C 10,8 C 0,0 km/h
15.06.2012 03:00 10,1 C 83 % 1014,6 hPa 0,0 l/m 0,0 km/h NO 7,3 C 10,1 C 0,0 km/h
15.06.2012 04:00 10,1 C 83 % 1014,7 hPa 0,0 l/m 0,0 km/h NO 7,3 C 10,1 C 0,0 km/h
15.06.2012 05:00 9,8 C 84 % 1014,4 hPa 0,0 l/m 0,0 km/h O-NO 7,2 C 9,8 C 0,0 km/h
15.06.2012 06:00 9,9 C 83 % 1014,3 hPa 0,0 l/m 0,0 km/h SO 7,2 C 9,9 C 0,0 km/h
15.06.2012 07:00 13,1 C 83 % 1014,0 hPa 0,0 l/m 0,0 km/h O 10,3 C 13,1 C 0,0 km/h
15.06.2012 08:00 17,9 C 76 % 1014,4 hPa 0,0 l/m 0,0 km/h NO 13,6 C 17,9 C 0,0 km/h
15.06.2012 09:00 21,1 C 62 % 1014,4 hPa 0,0 l/m 0,0 km/h W 13,5 C 21,1 C 0,0 km/h
15.06.2012 10:00 28,9 C 48 % 1014,3 hPa 0,0 l/m 0,0 km/h SW 16,8 C 28,9 C 0,0 km/h
15.06.2012 11:00 28,4 C 51 % 1014,3 hPa 0,0 l/m 0,0 km/h S-SW 17,3 C 28,4 C 0,0 km/h
15.06.2012 12:00 28,4 C 43 % 1014,7 hPa 0,0 l/m 11,0 km/h W 14,6 C 27,8 C 6,1 km/h
15.06.2012 13:00 25,9 C 48 % 1014,8 hPa 0,0 l/m 18,8 km/h W 14,0 C 24,0 C 10,4 km/h
15.06.2012 14:00 25,4 C 48 % 1015,1 hPa 0,0 l/m 10,4 km/h W-SW 13,6 C 24,5 C 5,8 km/h
15.06.2012 15:00 28,1 C 47 % 1014,9 hPa 0,0 l/m 23,3 km/h W-SW 15,7 C 26,5 C 13,0 km/h
15.06.2012 16:00 30,6 C 42 % 1014,6 hPa 0,0 l/m 9,1 km/h SW 16,2 C 30,4 C 5,0 km/h
15.06.2012 17:00 32,1 C 40 % 1014,3 hPa 0,0 l/m 8,4 km/h SW 16,8 C 32,0 C 4,7 km/h
15.06.2012 18:00 30,9 C 42 % 1014,0 hPa 0,0 l/m 5,8 km/h W-SW 16,5 C 30,9 C 3,2 km/h
15.06.2012 19:00 28,1 C 46 % 1014,0 hPa 0,0 l/m 4,5 km/h W-SW 15,4 C 28,1 C 2,5 km/h
15.06.2012 20:00 23,8 C 55 % 1013,8 hPa 0,0 l/m 5,2 km/h O 14,2 C 23,8 C 2,9 km/h
15.06.2012 21:00 20,9 C 66 % 1014,1 hPa 0,0 l/m 0,0 km/h SO 14,3 C 20,9 C 0,0 km/h
15.06.2012 22:00 17,9 C 74 % 1014,6 hPa 0,0 l/m 0,0 km/h SO 13,2 C 17,9 C 0,0 km/h
15.06.2012 23:00 16,6 C 78 % 1014,8 hPa 0,0 l/m 8,4 km/h NO 12,7 C 15,6 C 4,7 km/h
16.06.2012 00:00 15,9 C 81 % 1014,9 hPa 0,0 l/m 0,0 km/h NO 12,6 C 15,9 C 0,0 km/h
16.06.2012 01:00 15,6 C 82 % 1014,7 hPa 0,0 l/m 0,0 km/h O-SO 12,5 C 15,6 C 0,0 km/h
16.06.2012 02:00 14,6 C 83 % 1014,8 hPa 0,0 l/m 0,0 km/h SO 11,7 C 14,6 C 0,0 km/h
16.06.2012 03:00 14,4 C 83 % 1014,8 hPa 0,0 l/m 0,0 km/h O-SO 11,5 C 14,4 C 0,0 km/h
16.06.2012 04:00 13,9 C 83 % 1015,0 hPa 0,0 l/m 0,0 km/h SO 11,1 C 13,9 C 0,0 km/h
16.06.2012 05:00 13,9 C 82 % 1015,0 hPa 0,0 l/m 7,1 km/h SO 10,9 C 13,5 C 4,0 km/h
16.06.2012 06:00 13,6 C 82 % 1015,1 hPa 0,0 l/m 0,0 km/h SO 10,6 C 13,6 C 0,0 km/h
16.06.2012 07:00 16,5 C 83 % 1015,4 hPa 0,0 l/m 0,0 km/h SO 13,6 C 16,5 C 0,0 km/h
16.06.2012 08:00 24,5 C 64 % 1015,5 hPa 0,0 l/m 3,2 km/h SW 17,2 C 24,5 C 1,8 km/h
16.06.2012 09:00 30,5 C 43 % 1015,5 hPa 0,0 l/m 0,0 km/h SW 16,5 C 30,5 C 0,0 km/h
16.06.2012 10:00 29,8 C 36 % 1015,5 hPa 0,0 l/m 19,4 km/h W-SW 13,1 C 28,9 C 10,8 km/h
16.06.2012 11:00 30,3 C 37 % 1015,1 hPa 0,0 l/m 18,8 km/h W-NW 14,0 C 29,6 C 10,4 km/h
16.06.2012 12:00 28,8 C 40 % 1014,8 hPa 0,0 l/m 16,2 km/h W 13,8 C 27,8 C 9,0 km/h
16.06.2012 13:00 28,1 C 40 % 1014,4 hPa 0,0 l/m 0,0 km/h W 13,2 C 28,1 C 0,0 km/h
16.06.2012 14:00 29,7 C 36 % 1014,0 hPa 0,0 l/m 24,0 km/h W 13,0 C 28,6 C 13,3 km/h
16.06.2012 15:00 31,1 C 38 % 1013,6 hPa 0,0 l/m 18,8 km/h SW 15,1 C 30,6 C 10,4 km/h
16.06.2012 16:00 33,6 C 34 % 1013,6 hPa 0,0 l/m 33,0 km/h SW 15,5 C 33,6 C 18,4 km/h
16.06.2012 17:00 33,3 C 34 % 1013,5 hPa 0,0 l/m 20,7 km/h W 15,3 C 33,3 C 11,5 km/h
16.06.2012 18:00 32,1 C 37 % 1013,7 hPa 0,0 l/m 3,2 km/h W 15,5 C 32,1 C 1,8 km/h
16.06.2012 19:00 29,8 C 41 % 1014,4 hPa 0,0 l/m 7,8 km/h N-NO 15,1 C 29,7 C 4,3 km/h
16.06.2012 20:00 22,4 C 62 % 1015,5 hPa 0,0 l/m 16,2 km/h N 14,8 C 19,9 C 9,0 km/h
16.06.2012 21:00 18,0 C 67 % 1017,4 hPa 0,0 l/m 0,0 km/h N-NO 11,8 C 18,0 C 0,0 km/h
16.06.2012 22:00 16,4 C 67 % 1018,5 hPa 0,0 l/m 0,6 km/h N-NO 10,3 C 16,4 C 0,4 km/h
16.06.2012 23:00 15,5 C 71 % 1019,3 hPa 0,0 l/m 0,0 km/h N 10,3 C 15,5 C 0,0 km/h
17.06.2012 00:00 15,3 C 72 % 1019,8 hPa 0,0 l/m 0,0 km/h SO 10,3 C 15,3 C 0,0 km/h
17.06.2012 01:00 15,2 C 76 % 1019,7 hPa 0,0 l/m 0,0 km/h NO 11,0 C 15,2 C 0,0 km/h
17.06.2012 02:00 14,5 C 80 % 1019,3 hPa 0,0 l/m 0,0 km/h O-NO 11,1 C 14,5 C 0,0 km/h
17.06.2012 03:00 13,9 C 82 % 1018,6 hPa 0,0 l/m 0,0 km/h O-NO 10,9 C 13,9 C 0,0 km/h
17.06.2012 04:00 13,8 C 83 % 1019,9 hPa 0,0 l/m 0,0 km/h O-NO 11,0 C 13,8 C 0,0 km/h
17.06.2012 05:00 13,2 C 83 % 1020,3 hPa 0,0 l/m 0,0 km/h SO 10,4 C 13,2 C 0,0 km/h
17.06.2012 06:00 14,3 C 83 % 1020,4 hPa 0,0 l/m 0,0 km/h SO 11,5 C 14,3 C 0,0 km/h
17.06.2012 07:00 15,0 C 83 % 1020,7 hPa 0,0 l/m 0,0 km/h O 12,1 C 15,0 C 0,0 km/h
17.06.2012 08:00 16,4 C 83 % 1021,3 hPa 0,0 l/m 0,0 km/h O-NO 13,5 C 16,4 C 0,0 km/h
17.06.2012 09:00 18,0 C 79 % 1021,5 hPa 0,0 l/m 0,0 km/h NW 14,3 C 18,0 C 0,0 km/h
17.06.2012 10:00 21,6 C 68 % 1021,5 hPa 0,0 l/m 0,0 km/h NW 15,4 C 21,6 C 0,0 km/h
17.06.2012 11:00 20,6 C 69 % 1021,8 hPa 0,0 l/m 5,8 km/h W-NW 14,7 C 20,6 C 3,2 km/h
17.06.2012 12:00 21,0 C 66 % 1021,2 hPa 0,0 l/m 0,6 km/h NW 14,4 C 21,0 C 0,4 km/h
17.06.2012 13:00 23,2 C 61 % 1020,8 hPa 0,0 l/m 7,1 km/h N-NW 15,3 C 23,0 C 4,0 km/h
17.06.2012 14:00 24,3 C 56 % 1019,9 hPa 0,0 l/m 2,6 km/h NW 14,9 C 24,3 C 1,4 km/h
17.06.2012 15:00 26,2 C 54 % 1019,3 hPa 0,0 l/m 0,6 km/h W-NW 16,1 C 26,2 C 0,4 km/h
17.06.2012 16:00 28,8 C 46 % 1018,3 hPa 0,0 l/m 11,7 km/h W-NW 16,0 C 28,2 C 6,5 km/h
17.06.2012 17:00 30,5 C 44 % 1017,8 hPa 0,0 l/m 7,8 km/h W-NW 16,8 C 30,4 C 4,3 km/h
17.06.2012 18:00 30,4 C 44 % 1017,1 hPa 0,0 l/m 5,2 km/h W-NW 16,7 C 30,4 C 2,9 km/h
17.06.2012 19:00 26,8 C 50 % 1016,6 hPa 0,0 l/m 5,8 km/h W-NW 15,5 C 26,8 C 3,2 km/h
17.06.2012 20:00 21,6 C 63 % 1016,4 hPa 0,0 l/m 3,2 km/h W-SW 14,2 C 21,6 C 1,8 km/h
17.06.2012 21:00 19,3 C 70 % 1016,2 hPa 0,0 l/m 0,0 km/h S-SO 13,7 C 19,3 C 0,0 km/h
17.06.2012 22:00 16,8 C 77 % 1016,2 hPa 0,0 l/m 0,0 km/h S-SO 12,7 C 16,8 C 0,0 km/h
17.06.2012 23:00 15,5 C 81 % 1015,8 hPa 0,0 l/m 0,0 km/h S-SO 12,3 C 15,5 C 0,0 km/h
Min-Datum _ 14.06.12 14.06.12 12.06.12 - 11.06.12 - 14.06.12 11.06.12 11.06.12
_ Min-Zeit 05:30 18:19 03:30 - 00:30 - 05:30 07:30 00:30
Minimum _ 8,2 C 28 % 1000,6 hPa - 0,0 km/h - 5,1 C 7,5 C 0,0 km/h
Max-Datum _ 16.06.12 13.06.12 17.06.12 13.06.12 13.06.12 - 15.06.12 16.06.12 13.06.12
_ Max-Zeit 16:19 05:30 11:19 17:30 11:30 - 11:19 16:19 11:30
Maximum _ 33,6 C 85 % 1021,8 hPa 6,4 l/m 40,2 km/h
S
- 17,3 C 33,6 C 22,3 km/h
S
Durchschnitt _ 18,0 C 69 % 1011,9 hPa #29,5 l/m 5,8 km/h SO 11,7 C 17,3 C 3,2 km/h
www.sexauwetter.de